Time;durP1;ratioP1;P1;durP2;ratioP2;P2;SDS_P1;SDS_P2;PMS_P1;PMS_P2;Temp;Humidity;BMP_temperature;BMP_pressure;BME280_temperature;BME280_humidity;BME280_pressure;Samples;Min_cycle;Max_cycle;Signal;HPM_P1;HPM_P2
2022/01/11 00:00:57;;;;;;;198.70;58.85;;;;;;;;;;5018214;28;20060;-85
2022/01/11 00:03:24;;;;;;;166.55;55.85;;;;;;;;;;5018217;28;20065;-85
2022/01/11 00:05:57;;;;;;;167.82;59.60;;;;;;;;;;5018356;28;20092;-85
2022/01/11 00:08:31;;;;;;;187.77;61.75;;;;;;;;;;5018262;28;20072;-85
2022/01/11 00:11:05;;;;;;;188.32;60.83;;;;;;;;;;5036039;28;20032;-85
2022/01/11 00:13:33;;;;;;;192.45;61.97;;;;;;;;;;5035344;28;20108;-85
2022/01/11 00:15:59;;;;;;;175.40;54.33;;;;;;;;;;5018100;28;20040;-85
2022/01/11 00:18:25;;;;;;;172.80;54.55;;;;;;;;;;5018022;28;20046;-85
2022/01/11 00:20:52;;;;;;;184.02;64.43;;;;;;;;;;5017917;28;20036;-85
2022/01/11 00:25:46;;;;;;;186.23;62.13;;;;;;;;;;5035549;28;20029;-85
2022/01/11 00:28:13;;;;;;;177.65;57.45;;;;;;;;;;5017544;28;20030;-85
2022/01/11 00:30:41;;;;;;;181.57;60.47;;;;;;;;;;5017826;28;20037;-85
2022/01/11 00:33:12;;;;;;;164.00;55.90;;;;;;;;;;5017389;28;20080;-85
2022/01/11 00:35:44;;;;;;;177.85;58.75;;;;;;;;;;5017624;28;20034;-85
2022/01/11 00:38:16;;;;;;;176.10;59.45;;;;;;;;;;5035418;28;20119;-85
2022/01/11 00:40:52;;;;;;;175.57;59.22;;;;;;;;;;5017608;28;20037;-85
2022/01/11 00:43:20;;;;;;;196.45;61.80;;;;;;;;;;5017625;28;20068;-85
2022/01/11 00:45:47;;;;;;;193.77;63.17;;;;;;;;;;5017075;28;20057;-85
2022/01/11 00:48:13;;;;;;;191.43;64.30;;;;;;;;;;5017435;28;20030;-85
2022/01/11 00:50:39;;;;;;;187.20;65.07;;;;;;;;;;5017403;28;20036;-85
2022/01/11 00:53:07;;;;;;;199.43;65.78;;;;;;;;;;5035125;28;20033;-85
2022/01/11 00:55:34;;;;;;;191.10;64.32;;;;;;;;;;5017443;28;20227;-85
2022/01/11 00:58:02;;;;;;;200.55;65.05;;;;;;;;;;5017349;28;20096;-85
2022/01/11 01:00:29;;;;;;;185.98;63.40;;;;;;;;;;5017328;28;20030;-84
2022/01/11 01:02:55;;;;;;;193.93;63.47;;;;;;;;;;5017230;28;20033;-85
2022/01/11 01:05:21;;;;;;;197.55;65.95;;;;;;;;;;5017099;28;20029;-84
2022/01/11 01:07:49;;;;;;;187.05;66.20;;;;;;;;;;5017335;28;20044;-85
2022/01/11 01:10:37;;;;;;;202.38;66.72;;;;;;;;;;5034864;28;20480;-85
2022/01/11 01:13:03;;;;;;;198.02;65.82;;;;;;;;;;5033742;28;20041;-84
2022/01/11 01:15:29;;;;;;;205.05;65.25;;;;;;;;;;5017081;28;20033;-85
2022/01/11 01:17:55;;;;;;;191.60;64.78;;;;;;;;;;5016844;28;20036;-85
2022/01/11 01:20:22;;;;;;;186.65;65.07;;;;;;;;;;5016983;28;20133;-85
2022/01/11 01:22:51;;;;;;;205.27;67.38;;;;;;;;;;5016845;28;20082;-85
2022/01/11 01:25:20;;;;;;;199.25;63.63;;;;;;;;;;5016890;28;20030;-85
2022/01/11 01:27:47;;;;;;;183.68;58.97;;;;;;;;;;5016793;28;20476;-85
2022/01/11 01:30:13;;;;;;;194.82;61.67;;;;;;;;;;5016860;28;20033;-85
2022/01/11 01:32:39;;;;;;;191.15;61.50;;;;;;;;;;5016783;28;20045;-85
2022/01/11 01:35:06;;;;;;;206.25;63.75;;;;;;;;;;5016517;28;20519;-85
2022/01/11 01:37:34;;;;;;;191.73;63.38;;;;;;;;;;5016686;28;20053;-85
2022/01/11 01:40:00;;;;;;;203.38;62.88;;;;;;;;;;5016565;28;20036;-85
2022/01/11 01:42:29;;;;;;;197.60;64.55;;;;;;;;;;5016648;28;20189;-85
2022/01/11 01:44:59;;;;;;;216.43;66.75;;;;;;;;;;5016624;28;20025;-85
2022/01/11 01:47:25;;;;;;;219.18;69.20;;;;;;;;;;5017075;28;20056;-85
2022/01/11 01:49:52;;;;;;;197.73;63.28;;;;;;;;;;5016485;28;20432;-85
2022/01/11 01:52:19;;;;;;;185.30;62.50;;;;;;;;;;5016562;28;20036;-84
2022/01/11 01:54:45;;;;;;;189.25;62.45;;;;;;;;;;5016139;28;20033;-85
2022/01/11 01:57:11;;;;;;;198.90;61.53;;;;;;;;;;5015448;28;20033;-85
2022/01/11 01:59:38;;;;;;;229.75;67.80;;;;;;;;;;5016387;28;20460;-84
2022/01/11 02:02:07;;;;;;;216.95;65.47;;;;;;;;;;5015891;28;20124;-85
2022/01/11 02:04:34;;;;;;;210.73;63.90;;;;;;;;;;5033884;28;20034;-85
2022/01/11 02:07:00;;;;;;;211.50;63.60;;;;;;;;;;5016110;28;20033;-85
2022/01/11 02:09:26;;;;;;;204.02;62.17;;;;;;;;;;5016234;28;20052;-85
2022/01/11 02:11:52;;;;;;;212.40;67.50;;;;;;;;;;5016407;28;20392;-85
2022/01/11 02:14:19;;;;;;;216.10;65.72;;;;;;;;;;5016153;28;20029;-85
2022/01/11 02:16:45;;;;;;;202.35;61.53;;;;;;;;;;5033918;28;20037;-85
2022/01/11 02:19:11;;;;;;;202.07;62.85;;;;;;;;;;5016237;28;20103;-85
2022/01/11 02:21:38;;;;;;;192.70;58.42;;;;;;;;;;5016435;28;20038;-85
2022/01/11 02:24:04;;;;;;;210.80;64.65;;;;;;;;;;5016073;28;20052;-85
2022/01/11 02:26:31;;;;;;;212.38;65.65;;;;;;;;;;5033689;28;20030;-85
2022/01/11 02:28:57;;;;;;;209.70;66.18;;;;;;;;;;5015879;28;20033;-85
2022/01/11 02:31:23;;;;;;;193.38;62.45;;;;;;;;;;5033516;28;20124;-85
2022/01/11 02:33:52;;;;;;;205.80;65.97;;;;;;;;;;5033587;28;20401;-85
2022/01/11 02:36:23;;;;;;;185.35;60.72;;;;;;;;;;5015953;28;20129;-85
2022/01/11 02:38:50;;;;;;;219.55;64.28;;;;;;;;;;5033658;28;20041;-85
2022/01/11 02:41:17;;;;;;;219.93;61.70;;;;;;;;;;5033639;28;20038;-85
2022/01/11 02:43:48;;;;;;;215.30;63.38;;;;;;;;;;5015981;28;20034;-84
2022/01/11 02:46:14;;;;;;;209.38;61.95;;;;;;;;;;5015895;28;20040;-85
2022/01/11 02:48:41;;;;;;;207.07;61.35;;;;;;;;;;5015826;28;20033;-85
2022/01/11 02:51:08;;;;;;;200.38;59.38;;;;;;;;;;5015832;28;20033;-85
2022/01/11 02:53:41;;;;;;;189.40;59.38;;;;;;;;;;5015766;28;20038;-85
2022/01/11 02:56:08;;;;;;;212.85;64.65;;;;;;;;;;5015553;28;20038;-84
2022/01/11 02:58:34;;;;;;;179.30;55.83;;;;;;;;;;5033641;28;20033;-84
2022/01/11 03:01:01;;;;;;;204.18;63.22;;;;;;;;;;5015732;28;20037;-85
2022/01/11 03:03:27;;;;;;;183.52;59.92;;;;;;;;;;5015667;28;20144;-84
2022/01/11 03:05:55;;;;;;;195.52;60.78;;;;;;;;;;5015716;28;20038;-85
2022/01/11 03:08:22;;;;;;;200.75;64.05;;;;;;;;;;5016528;28;20029;-84
2022/01/11 03:10:49;;;;;;;189.35;58.83;;;;;;;;;;5019320;28;20061;-84
2022/01/11 03:13:18;;;;;;;218.80;63.40;;;;;;;;;;5036835;28;20033;-84
2022/01/11 03:15:45;;;;;;;192.93;59.25;;;;;;;;;;5036891;28;20029;-84
2022/01/11 03:18:12;;;;;;;204.98;60.00;;;;;;;;;;5018865;28;20032;-85
2022/01/11 03:20:39;;;;;;;204.93;58.55;;;;;;;;;;5019144;28;20029;-85
2022/01/11 03:23:06;;;;;;;201.63;61.65;;;;;;;;;;5018829;28;20041;-85
2022/01/11 03:25:33;;;;;;;180.68;59.15;;;;;;;;;;5018983;28;20049;-85
2022/01/11 03:27:59;;;;;;;189.50;61.38;;;;;;;;;;5018920;28;20457;-85
2022/01/11 03:30:26;;;;;;;203.65;59.58;;;;;;;;;;5018810;28;20033;-84
2022/01/11 03:32:52;;;;;;;201.73;56.45;;;;;;;;;;5036520;28;20112;-85
2022/01/11 03:35:19;;;;;;;192.23;57.55;;;;;;;;;;5018853;28;20453;-85
2022/01/11 03:37:46;;;;;;;188.90;57.22;;;;;;;;;;5036414;28;20380;-85
2022/01/11 03:40:17;;;;;;;213.20;63.72;;;;;;;;;;5036245;28;20034;-85
2022/01/11 03:42:43;;;;;;;195.60;58.38;;;;;;;;;;5002529;28;20037;-85
2022/01/11 03:45:10;;;;;;;196.23;59.67;;;;;;;;;;5018711;28;20033;-85
2022/01/11 03:47:36;;;;;;;192.40;59.72;;;;;;;;;;5018585;28;20029;-85
2022/01/11 03:50:06;;;;;;;202.98;61.42;;;;;;;;;;5018452;28;20036;-84
2022/01/11 03:52:33;;;;;;;192.85;62.03;;;;;;;;;;5018421;28;20038;-85
2022/01/11 03:57:28;;;;;;;207.98;64.32;;;;;;;;;;5035972;28;20404;-85
2022/01/11 03:59:55;;;;;;;207.23;61.97;;;;;;;;;;5035801;28;20030;-85
2022/01/11 04:02:22;;;;;;;178.98;60.00;;;;;;;;;;5018104;28;20380;-85
2022/01/11 04:04:52;;;;;;;208.43;64.20;;;;;;;;;;5018036;28;20041;-84
2022/01/11 04:07:22;;;;;;;190.82;60.85;;;;;;;;;;5036369;28;20026;-84
2022/01/11 04:09:49;;;;;;;201.60;60.63;;;;;;;;;;5018075;28;20113;-85
2022/01/11 04:12:16;;;;;;;198.32;58.20;;;;;;;;;;5017962;28;20037;-85
2022/01/11 04:14:43;;;;;;;189.60;56.85;;;;;;;;;;5018052;28;20037;-85
2022/01/11 04:17:10;;;;;;;207.07;62.50;;;;;;;;;;5017997;28;20035;-85
2022/01/11 04:19:36;;;;;;;199.02;63.33;;;;;;;;;;5035061;28;20392;-84
2022/01/11 04:22:03;;;;;;;204.55;62.65;;;;;;;;;;5017676;28;20092;-85
2022/01/11 04:24:29;;;;;;;210.93;65.65;;;;;;;;;;5017802;28;20037;-85
2022/01/11 04:26:56;;;;;;;209.00;63.60;;;;;;;;;;5017976;28;20476;-85
2022/01/11 04:29:22;;;;;;;215.23;62.45;;;;;;;;;;5017601;28;20068;-85
2022/01/11 04:31:49;;;;;;;190.80;62.75;;;;;;;;;;5035485;28;20112;-85
2022/01/11 04:34:15;;;;;;;201.40;62.58;;;;;;;;;;5017744;28;20062;-85
2022/01/11 04:36:41;;;;;;;206.20;64.07;;;;;;;;;;5017730;28;20080;-85
2022/01/11 04:39:10;;;;;;;208.90;62.97;;;;;;;;;;5017599;28;20061;-85
2022/01/11 04:41:36;;;;;;;191.65;62.30;;;;;;;;;;5017788;28;20037;-84
2022/01/11 04:44:03;;;;;;;193.02;61.70;;;;;;;;;;5035241;28;20030;-85
2022/01/11 04:46:29;;;;;;;216.65;64.95;;;;;;;;;;5017497;28;20064;-85
2022/01/11 04:48:56;;;;;;;195.13;60.10;;;;;;;;;;5035408;28;20033;-85
2022/01/11 04:51:24;;;;;;;209.18;63.47;;;;;;;;;;5017510;28;20053;-85
2022/01/11 04:53:50;;;;;;;207.00;62.15;;;;;;;;;;5017170;28;20392;-85
2022/01/11 04:56:17;;;;;;;186.57;61.15;;;;;;;;;;5017209;28;20033;-85
2022/01/11 04:58:43;;;;;;;205.48;65.18;;;;;;;;;;5017304;28;20480;-85
2022/01/11 05:01:09;;;;;;;212.52;65.00;;;;;;;;;;5017282;28;20407;-85
2022/01/11 05:03:36;;;;;;;183.98;59.63;;;;;;;;;;5017438;28;20044;-85
2022/01/11 05:06:04;;;;;;;203.35;63.67;;;;;;;;;;5017058;28;20030;-85
2022/01/11 05:08:30;;;;;;;185.90;58.72;;;;;;;;;;5017142;28;20029;-85
2022/01/11 05:10:57;;;;;;;195.30;62.88;;;;;;;;;;5017094;28;20040;-85
2022/01/11 05:13:23;;;;;;;198.93;60.83;;;;;;;;;;5016746;28;20038;-85
2022/01/11 05:15:50;;;;;;;193.10;61.45;;;;;;;;;;5016980;28;20128;-85
2022/01/11 05:18:17;;;;;;;190.38;60.95;;;;;;;;;;5017035;28;20034;-85
2022/01/11 05:20:43;;;;;;;182.15;61.20;;;;;;;;;;5017286;28;20392;-85
2022/01/11 05:23:10;;;;;;;203.70;62.10;;;;;;;;;;5016724;28;20041;-85
2022/01/11 05:25:37;;;;;;;194.88;61.83;;;;;;;;;;5016868;28;20053;-85
2022/01/11 05:28:03;;;;;;;192.30;60.58;;;;;;;;;;5016562;28;20033;-85
2022/01/11 05:30:30;;;;;;;202.77;61.75;;;;;;;;;;5016797;28;20033;-85
2022/01/11 05:32:56;;;;;;;196.77;62.63;;;;;;;;;;5016628;28;20044;-85
2022/01/11 05:35:24;;;;;;;202.25;66.25;;;;;;;;;;5016810;28;20038;-86
2022/01/11 05:37:51;;;;;;;180.55;60.75;;;;;;;;;;5016650;28;20025;-86
2022/01/11 05:40:17;;;;;;;204.02;61.58;;;;;;;;;;5016713;28;20033;-85
2022/01/11 05:42:44;;;;;;;191.43;61.70;;;;;;;;;;5016667;28;20034;-86
2022/01/11 05:45:11;;;;;;;194.95;60.80;;;;;;;;;;5016812;28;20083;-86
2022/01/11 05:47:38;;;;;;;201.02;62.95;;;;;;;;;;5017250;28;20035;-86
2022/01/11 05:50:05;;;;;;;206.90;63.95;;;;;;;;;;5017036;28;20033;-86
2022/01/11 05:52:32;;;;;;;202.75;64.38;;;;;;;;;;5016755;28;20076;-86
2022/01/11 05:54:58;;;;;;;184.45;60.75;;;;;;;;;;5016598;28;20048;-86
2022/01/11 05:57:25;;;;;;;195.02;63.38;;;;;;;;;;5016458;28;20042;-86
2022/01/11 05:59:51;;;;;;;191.13;63.65;;;;;;;;;;5016734;28;20061;-86
2022/01/11 06:02:17;;;;;;;203.40;63.28;;;;;;;;;;5016348;28;20544;-86
2022/01/11 06:04:43;;;;;;;201.20;63.15;;;;;;;;;;5016655;28;20040;-86
2022/01/11 06:07:10;;;;;;;201.68;65.25;;;;;;;;;;5016542;28;20064;-86
2022/01/11 06:09:36;;;;;;;186.20;62.70;;;;;;;;;;5034279;28;20535;-86
2022/01/11 06:12:02;;;;;;;209.93;63.80;;;;;;;;;;5034091;28;20053;-86
2022/01/11 06:14:29;;;;;;;207.77;64.43;;;;;;;;;;5016448;28;20033;-86
2022/01/11 06:16:55;;;;;;;194.85;64.18;;;;;;;;;;5016477;28;20029;-86
2022/01/11 06:19:21;;;;;;;217.82;68.15;;;;;;;;;;5016463;28;20033;-86
2022/01/11 06:21:47;;;;;;;218.20;67.35;;;;;;;;;;5016477;28;20033;-86
2022/01/11 06:24:14;;;;;;;185.35;62.55;;;;;;;;;;5016521;28;20033;-86
2022/01/11 06:26:41;;;;;;;195.07;60.25;;;;;;;;;;5017081;28;20488;-86
2022/01/11 06:29:08;;;;;;;205.57;66.30;;;;;;;;;;5016342;28;20038;-86
2022/01/11 06:31:35;;;;;;;204.90;64.85;;;;;;;;;;5016432;28;20176;-86
2022/01/11 06:34:02;;;;;;;203.95;65.63;;;;;;;;;;5016045;28;20081;-86
2022/01/11 06:36:29;;;;;;;217.05;70.03;;;;;;;;;;5016260;28;20040;-87
2022/01/11 06:38:55;;;;;;;192.20;63.38;;;;;;;;;;5016225;28;20032;-86
2022/01/11 06:41:21;;;;;;;187.27;62.10;;;;;;;;;;5034153;28;20026;-86
2022/01/11 06:43:49;;;;;;;193.18;63.28;;;;;;;;;;5035310;28;20476;-87
2022/01/11 06:46:15;;;;;;;196.65;66.05;;;;;;;;;;5020025;28;20038;-87
2022/01/11 06:48:42;;;;;;;198.55;66.75;;;;;;;;;;5020078;28;20053;-86
2022/01/11 06:51:08;;;;;;;196.68;64.22;;;;;;;;;;5037741;28;20084;-86
2022/01/11 06:53:34;;;;;;;179.40;60.10;;;;;;;;;;5019838;28;20395;-86
2022/01/11 06:56:00;;;;;;;204.00;64.88;;;;;;;;;;5019823;28;20091;-86
2022/01/11 06:58:27;;;;;;;183.10;62.85;;;;;;;;;;5019959;28;20042;-86
2022/01/11 07:00:53;;;;;;;182.68;60.83;;;;;;;;;;5019802;28;20137;-86
2022/01/11 07:03:19;;;;;;;179.60;60.72;;;;;;;;;;5019553;28;20033;-86
2022/01/11 07:05:46;;;;;;;193.38;64.88;;;;;;;;;;5020423;28;20036;-87
2022/01/11 07:08:12;;;;;;;201.63;70.50;;;;;;;;;;5019847;28;20040;-86
2022/01/11 07:10:38;;;;;;;209.50;66.82;;;;;;;;;;5019647;28;20037;-86
2022/01/11 07:13:05;;;;;;;201.38;65.35;;;;;;;;;;5019470;28;20037;-87
2022/01/11 07:15:31;;;;;;;195.23;66.05;;;;;;;;;;5019566;28;20033;-87
2022/01/11 07:17:58;;;;;;;186.48;63.65;;;;;;;;;;5019652;28;20036;-87
2022/01/11 07:20:24;;;;;;;217.25;73.82;;;;;;;;;;5037159;28;20048;-87
2022/01/11 07:22:50;;;;;;;208.60;69.95;;;;;;;;;;5019294;28;20031;-87
2022/01/11 07:25:17;;;;;;;213.93;70.07;;;;;;;;;;5019326;28;20025;-86
2022/01/11 07:27:43;;;;;;;220.98;73.47;;;;;;;;;;5019187;28;20038;-86
2022/01/11 07:30:09;;;;;;;224.73;72.70;;;;;;;;;;5019257;28;20053;-86
2022/01/11 07:32:37;;;;;;;225.93;75.40;;;;;;;;;;5018948;28;20040;-86
2022/01/11 07:35:04;;;;;;;221.05;77.35;;;;;;;;;;5036530;28;20049;-86
2022/01/11 07:37:30;;;;;;;233.60;84.28;;;;;;;;;;5019172;28;20029;-87
2022/01/11 07:39:56;;;;;;;257.25;92.13;;;;;;;;;;5018821;28;20541;-87
2022/01/11 07:42:23;;;;;;;245.07;86.70;;;;;;;;;;5018991;28;20036;-87
2022/01/11 07:44:51;;;;;;;248.73;91.38;;;;;;;;;;5019150;28;20030;-87
2022/01/11 07:47:18;;;;;;;251.68;89.95;;;;;;;;;;5036651;28;20030;-86
2022/01/11 07:49:47;;;;;;;249.10;85.03;;;;;;;;;;5018855;28;20038;-86
2022/01/11 07:52:13;;;;;;;245.00;89.50;;;;;;;;;;5018663;28;20110;-87
2022/01/11 07:54:40;;;;;;;240.10;88.03;;;;;;;;;;5017721;28;20042;-86
2022/01/11 07:57:06;;;;;;;252.75;84.57;;;;;;;;;;5018602;28;20116;-87
2022/01/11 07:59:33;;;;;;;236.27;83.80;;;;;;;;;;5018564;28;20025;-87
2022/01/11 08:01:59;;;;;;;254.55;92.07;;;;;;;;;;5018540;28;20103;-86
2022/01/11 08:04:30;;;;;;;259.77;91.07;;;;;;;;;;5018421;28;20083;-87
2022/01/11 08:06:57;;;;;;;256.15;91.85;;;;;;;;;;5018719;28;20038;-86
2022/01/11 08:09:23;;;;;;;261.63;89.00;;;;;;;;;;5018956;28;20033;-87
2022/01/11 08:11:50;;;;;;;241.80;86.68;;;;;;;;;;5018536;28;20117;-86
2022/01/11 08:14:17;;;;;;;257.80;92.43;;;;;;;;;;5036151;28;20061;-86
2022/01/11 08:16:43;;;;;;;252.10;88.82;;;;;;;;;;5035871;28;20116;-87
2022/01/11 08:19:10;;;;;;;279.83;92.90;;;;;;;;;;5018421;28;20025;-86
2022/01/11 08:21:36;;;;;;;287.42;95.93;;;;;;;;;;5018285;28;20057;-87
2022/01/11 08:24:02;;;;;;;270.30;95.38;;;;;;;;;;5017958;28;20040;-86
2022/01/11 08:26:29;;;;;;;282.80;93.53;;;;;;;;;;5018326;28;20535;-87
2022/01/11 08:28:55;;;;;;;281.38;98.25;;;;;;;;;;5018468;28;20136;-86
2022/01/11 08:31:21;;;;;;;282.35;98.75;;;;;;;;;;5017962;28;20037;-86
2022/01/11 08:33:48;;;;;;;280.25;98.15;;;;;;;;;;5017823;28;20053;-87
2022/01/11 08:36:14;;;;;;;298.90;100.50;;;;;;;;;;5018028;28;20420;-86
2022/01/11 08:38:41;;;;;;;288.35;98.78;;;;;;;;;;5018165;28;20030;-87
2022/01/11 08:41:08;;;;;;;281.33;96.88;;;;;;;;;;5017940;28;20037;-86
2022/01/11 08:43:34;;;;;;;293.92;98.28;;;;;;;;;;5017823;28;20059;-87
2022/01/11 08:46:04;;;;;;;274.02;97.25;;;;;;;;;;5017788;28;20030;-86
2022/01/11 08:48:30;;;;;;;271.05;97.15;;;;;;;;;;5017742;28;20056;-87
2022/01/11 08:50:57;;;;;;;297.80;98.47;;;;;;;;;;5017835;28;20431;-86
2022/01/11 08:53:23;;;;;;;285.33;96.20;;;;;;;;;;5017500;28;20471;-86
2022/01/11 08:55:50;;;;;;;300.90;102.95;;;;;;;;;;5017641;28;20034;-86
2022/01/11 08:58:19;;;;;;;287.23;98.90;;;;;;;;;;5017666;28;20025;-86
2022/01/11 09:00:46;;;;;;;297.58;98.28;;;;;;;;;;5017579;28;20072;-87
2022/01/11 09:03:12;;;;;;;302.60;102.65;;;;;;;;;;5017440;28;20033;-87
2022/01/11 09:05:39;;;;;;;301.80;99.80;;;;;;;;;;5017550;28;20032;-87
2022/01/11 09:08:05;;;;;;;285.15;98.53;;;;;;;;;;5017471;28;20041;-87
2022/01/11 09:10:32;;;;;;;286.00;100.88;;;;;;;;;;5017281;28;20384;-86
2022/01/11 09:12:58;;;;;;;305.90;100.57;;;;;;;;;;5017341;28;20061;-87
2022/01/11 09:15:25;;;;;;;277.25;97.13;;;;;;;;;;5017321;28;20041;-86
2022/01/11 09:17:51;;;;;;;295.23;97.38;;;;;;;;;;5017422;28;20057;-87
2022/01/11 09:20:17;;;;;;;265.15;96.82;;;;;;;;;;5017301;28;20033;-86
2022/01/11 09:22:44;;;;;;;272.65;97.43;;;;;;;;;;5017214;28;20532;-86
2022/01/11 09:25:11;;;;;;;279.25;94.90;;;;;;;;;;5017058;28;20029;-87
2022/01/11 09:27:38;;;;;;;275.55;94.13;;;;;;;;;;5017101;28;20032;-86
2022/01/11 09:30:08;;;;;;;268.85;91.95;;;;;;;;;;5017116;28;20064;-86
2022/01/11 09:32:34;;;;;;;255.55;90.78;;;;;;;;;;5017041;28;20033;-86
2022/01/11 09:35:01;;;;;;;273.52;94.18;;;;;;;;;;5016677;28;20108;-86
2022/01/11 09:37:27;;;;;;;272.70;91.78;;;;;;;;;;5016807;28;20502;-86
2022/01/11 09:39:54;;;;;;;283.52;92.80;;;;;;;;;;5017003;28;20037;-87
2022/01/11 09:42:20;;;;;;;279.73;93.68;;;;;;;;;;5016869;28;20044;-87
2022/01/11 09:44:47;;;;;;;276.25;96.28;;;;;;;;;;5016943;28;20488;-86
2022/01/11 09:47:14;;;;;;;270.42;92.53;;;;;;;;;;5017209;28;20036;-86
2022/01/11 09:49:41;;;;;;;267.10;90.60;;;;;;;;;;5016871;28;20053;-86
2022/01/11 09:52:08;;;;;;;283.40;90.65;;;;;;;;;;5016807;28;20037;-87
2022/01/11 09:54:36;;;;;;;285.92;93.75;;;;;;;;;;5016566;28;20051;-87
2022/01/11 09:57:03;;;;;;;267.05;91.53;;;;;;;;;;5016787;28;20490;-87
2022/01/11 09:59:30;;;;;;;265.08;91.20;;;;;;;;;;5017207;28;20029;-86
2022/01/11 10:01:56;;;;;;;275.00;93.82;;;;;;;;;;5016621;28;20029;-86
2022/01/11 10:04:28;;;;;;;295.00;95.13;;;;;;;;;;5016803;28;20038;-86
2022/01/11 10:06:56;;;;;;;279.25;95.13;;;;;;;;;;5016524;28;20033;-86
2022/01/11 10:09:23;;;;;;;273.17;96.03;;;;;;;;;;5016678;28;20538;-87
2022/01/11 10:11:50;;;;;;;268.95;93.70;;;;;;;;;;5016410;28;20141;-87
2022/01/11 10:14:37;;;;;;;278.42;96.32;;;;;;;;;;5016375;28;20042;-87
2022/01/11 10:17:18;;;;;;;285.80;94.40;;;;;;;;;;5016363;28;20113;-87
2022/01/11 10:19:46;;;;;;;290.77;98.65;;;;;;;;;;5019916;28;20037;-86
2022/01/11 10:22:20;;;;;;;287.35;97.20;;;;;;;;;;5020460;28;20116;-87
2022/01/11 10:24:48;;;;;;;288.60;99.03;;;;;;;;;;5038087;28;20117;-87
2022/01/11 10:27:18;;;;;;;281.85;98.25;;;;;;;;;;5020383;28;20035;-86
2022/01/11 10:29:46;;;;;;;283.13;99.97;;;;;;;;;;5020333;28;20503;-87
2022/01/11 10:32:17;;;;;;;265.20;93.35;;;;;;;;;;5020410;28;20065;-87
2022/01/11 10:34:47;;;;;;;291.10;96.60;;;;;;;;;;5020020;28;20111;-87
2022/01/11 10:37:13;;;;;;;299.38;100.35;;;;;;;;;;5020339;28;20029;-86
2022/01/11 10:39:41;;;;;;;309.77;102.78;;;;;;;;;;5020178;28;20025;-87
2022/01/11 10:42:23;;;;;;;283.25;95.75;;;;;;;;;;5020107;28;20060;-86
2022/01/11 10:44:54;;;;;;;266.73;94.63;;;;;;;;;;5020063;28;20045;-87
2022/01/11 10:47:25;;;;;;;283.45;96.32;;;;;;;;;;5019999;28;20384;-86
2022/01/11 10:49:56;;;;;;;291.92;101.53;;;;;;;;;;5019996;28;20037;-86
2022/01/11 10:52:24;;;;;;;311.23;105.18;;;;;;;;;;5020138;28;20037;-87
2022/01/11 10:54:51;;;;;;;293.92;104.53;;;;;;;;;;5019903;28;20125;-87
2022/01/11 10:57:19;;;;;;;295.92;100.35;;;;;;;;;;5019683;28;20033;-87
2022/01/11 11:00:03;;;;;;;277.98;97.78;;;;;;;;;;5019784;28;20034;-87
2022/01/11 11:02:30;;;;;;;284.98;105.50;;;;;;;;;;5019952;28;20032;-86
2022/01/11 11:04:58;;;;;;;369.75;130.13;;;;;;;;;;5019688;28;20056;-87
2022/01/11 11:07:26;;;;;;;382.52;135.38;;;;;;;;;;5037367;28;20424;-86
2022/01/11 11:09:52;;;;;;;331.85;114.68;;;;;;;;;;5019622;28;20071;-87
2022/01/11 11:12:20;;;;;;;284.60;101.47;;;;;;;;;;5019864;28;20036;-86
2022/01/11 11:14:58;;;;;;;296.58;101.40;;;;;;;;;;5019613;28;20030;-87
2022/01/11 11:17:30;;;;;;;278.65;99.82;;;;;;;;;;5019521;28;20061;-87
2022/01/11 11:19:56;;;;;;;321.25;103.20;;;;;;;;;;5019322;28;20030;-86
2022/01/11 11:22:24;;;;;;;321.35;107.43;;;;;;;;;;5019347;28;20029;-87
2022/01/11 11:24:53;;;;;;;313.90;102.05;;;;;;;;;;5019246;28;20034;-86
2022/01/11 11:27:20;;;;;;;303.77;102.30;;;;;;;;;;5019248;28;20029;-87
2022/01/11 11:29:48;;;;;;;292.50;96.78;;;;;;;;;;5018998;28;20029;-86
2022/01/11 11:32:17;;;;;;;310.02;102.55;;;;;;;;;;5019208;28;20068;-85
2022/01/11 11:34:50;;;;;;;308.58;98.65;;;;;;;;;;5019088;28;20392;-86
2022/01/11 11:37:26;;;;;;;338.30;112.60;;;;;;;;;;5019091;28;20038;-86
2022/01/11 11:40:00;;;;;;;338.95;108.25;;;;;;;;;;5036801;28;20545;-86
2022/01/11 11:42:28;;;;;;;329.25;109.97;;;;;;;;;;5019149;28;20037;-86
2022/01/11 11:44:57;;;;;;;318.02;107.32;;;;;;;;;;5018991;28;20476;-87
2022/01/11 11:47:35;;;;;;;315.35;102.45;;;;;;;;;;5019024;28;20052;-86
2022/01/11 11:50:03;;;;;;;332.80;107.18;;;;;;;;;;5018894;28;20037;-86
2022/01/11 11:52:37;;;;;;;336.45;109.85;;;;;;;;;;5018773;28;20120;-86
2022/01/11 11:55:09;;;;;;;349.98;109.22;;;;;;;;;;5018951;28;20489;-86
2022/01/11 11:57:37;;;;;;;351.65;118.32;;;;;;;;;;5018379;28;20551;-86
2022/01/11 12:00:21;;;;;;;342.10;121.10;;;;;;;;;;5018624;28;20037;-86
2022/01/11 12:02:47;;;;;;;355.70;115.50;;;;;;;;;;5018630;28;20200;-86
2022/01/11 12:05:32;;;;;;;343.45;116.50;;;;;;;;;;5018411;28;20083;-86
2022/01/11 12:07:59;;;;;;;317.55;108.55;;;;;;;;;;5018176;28;20033;-87
2022/01/11 12:10:45;;;;;;;318.17;104.50;;;;;;;;;;5018354;28;20383;-87
2022/01/11 12:13:31;;;;;;;289.83;94.35;;;;;;;;;;5004602;28;20042;-86
2022/01/11 12:15:58;;;;;;;290.23;93.20;;;;;;;;;;5018145;28;20423;-86
2022/01/11 12:18:24;;;;;;;304.35;94.20;;;;;;;;;;5018150;28;20030;-86
2022/01/11 12:20:52;;;;;;;298.73;91.82;;;;;;;;;;5018093;28;20040;-86
2022/01/11 12:23:38;;;;;;;306.10;95.88;;;;;;;;;;5018118;28;20040;-86
2022/01/11 12:26:16;;;;;;;285.00;91.47;;;;;;;;;;5021985;28;20558;-86
2022/01/11 12:28:43;;;;;;;317.13;99.22;;;;;;;;;;5017921;28;20062;-86
2022/01/11 12:31:42;;;;;;;327.35;95.65;;;;;;;;;;5017894;28;20037;-86
2022/01/11 12:34:10;;;;;;;318.00;94.28;;;;;;;;;;4955787;28;20112;-86
2022/01/11 12:36:56;;;;;;;321.67;94.82;;;;;;;;;;5015640;28;20076;-86
2022/01/11 12:39:24;;;;;;;306.75;94.32;;;;;;;;;;4998065;28;20543;-86
2022/01/11 12:41:50;;;;;;;298.58;88.95;;;;;;;;;;5015119;28;20092;-86
2022/01/11 12:44:33;;;;;;;281.77;92.15;;;;;;;;;;4997999;28;20190;-86
2022/01/11 12:47:00;;;;;;;323.27;97.18;;;;;;;;;;4998015;28;20121;-86
2022/01/11 12:49:27;;;;;;;340.23;98.97;;;;;;;;;;4997963;28;20136;-86
2022/01/11 12:51:58;;;;;;;338.33;103.10;;;;;;;;;;4997744;28;20030;-85
2022/01/11 12:54:28;;;;;;;333.63;102.65;;;;;;;;;;4997810;28;20128;-86
2022/01/11 12:57:15;;;;;;;344.48;107.53;;;;;;;;;;4997802;28;20053;-86
2022/01/11 12:59:43;;;;;;;327.95;100.80;;;;;;;;;;5015384;28;20030;-85
2022/01/11 13:02:13;;;;;;;401.30;119.90;;;;;;;;;;4997648;28;20033;-86
2022/01/11 13:04:40;;;;;;;388.73;120.15;;;;;;;;;;4997641;28;20065;-86
2022/01/11 13:07:15;;;;;;;393.08;125.00;;;;;;;;;;4997417;28;20389;-85
2022/01/11 13:09:44;;;;;;;373.50;123.50;;;;;;;;;;4997399;28;20034;-86
2022/01/11 13:12:11;;;;;;;415.25;140.00;;;;;;;;;;4997287;28;20036;-86
2022/01/11 13:14:41;;;;;;;461.45;149.70;;;;;;;;;;4997924;28;20057;-86
2022/01/11 13:17:08;;;;;;;453.30;144.40;;;;;;;;;;4997357;28;20684;-86
2022/01/11 13:19:41;;;;;;;407.33;140.05;;;;;;;;;;4997723;28;20064;-86
2022/01/11 13:22:11;;;;;;;366.60;127.15;;;;;;;;;;5014842;28;20049;-86
2022/01/11 13:24:46;;;;;;;348.70;119.38;;;;;;;;;;4997434;28;20037;-86
2022/01/11 13:27:14;;;;;;;375.48;130.25;;;;;;;;;;4997215;28;20377;-86
2022/01/11 13:29:40;;;;;;;364.45;125.28;;;;;;;;;;4997098;28;20120;-86
2022/01/11 13:32:07;;;;;;;393.40;124.40;;;;;;;;;;4997282;28;20041;-86
2022/01/11 13:34:34;;;;;;;393.23;130.98;;;;;;;;;;5011949;28;20404;-86
2022/01/11 13:37:00;;;;;;;403.83;130.77;;;;;;;;;;5016824;28;20026;-86
2022/01/11 13:39:33;;;;;;;404.95;128.55;;;;;;;;;;5016649;28;20025;-86
2022/01/11 13:42:01;;;;;;;332.75;115.68;;;;;;;;;;5016617;28;20029;-86
2022/01/11 13:44:30;;;;;;;337.25;114.78;;;;;;;;;;5016521;28;20083;-86
2022/01/11 13:47:16;;;;;;;324.55;106.22;;;;;;;;;;5016472;28;20032;-86
2022/01/11 13:49:44;;;;;;;317.15;106.60;;;;;;;;;;5016751;28;20072;-86
2022/01/11 13:52:18;;;;;;;328.88;112.07;;;;;;;;;;5016121;28;20029;-86
2022/01/11 13:54:50;;;;;;;322.52;108.30;;;;;;;;;;5033622;28;20472;-86
2022/01/11 13:57:19;;;;;;;331.17;112.25;;;;;;;;;;5016422;28;20030;-86
2022/01/11 13:59:46;;;;;;;311.27;109.43;;;;;;;;;;5016512;28;20100;-86
2022/01/11 14:02:15;;;;;;;303.55;109.80;;;;;;;;;;5016581;28;20064;-86
2022/01/11 14:04:45;;;;;;;289.27;98.53;;;;;;;;;;5016283;28;20030;-86
2022/01/11 14:07:37;;;;;;;290.67;98.38;;;;;;;;;;5034636;28;20049;-86
2022/01/11 14:10:08;;;;;;;265.95;95.53;;;;;;;;;;5013072;28;20095;-85
2022/01/11 14:12:45;;;;;;;262.33;91.43;;;;;;;;;;5016102;28;20080;-85